createdAt,value
2018-11-27T00:00:21.395Z,5.00
2018-11-27T00:02:49.559Z,5.00
2018-11-27T00:05:17.676Z,5.00
2018-11-27T00:07:45.768Z,5.00
2018-11-27T00:10:13.869Z,4.90
2018-11-27T00:12:42.034Z,4.90
2018-11-27T00:15:11.227Z,5.00
2018-11-27T00:17:39.372Z,5.00
2018-11-27T00:20:10.449Z,5.00
2018-11-27T00:22:39.135Z,5.00
2018-11-27T00:25:11.608Z,5.10
2018-11-27T00:27:39.718Z,5.10
2018-11-27T00:30:11.908Z,5.10
2018-11-27T00:32:40.033Z,5.10
2018-11-27T00:35:10.296Z,5.10
2018-11-27T00:37:38.407Z,5.10
2018-11-27T00:40:15.285Z,5.20
2018-11-27T00:42:43.449Z,5.10
2018-11-27T00:45:15.538Z,5.00
2018-11-27T00:47:44.485Z,5.00
2018-11-27T00:50:15.846Z,5.10
2018-11-27T00:52:43.968Z,5.10
2018-11-27T00:55:16.076Z,5.10
2018-11-27T00:57:44.977Z,5.10
2018-11-27T01:00:17.082Z,5.10
2018-11-27T01:02:45.233Z,5.10
2018-11-27T01:05:14.419Z,5.10
2018-11-27T01:07:42.555Z,5.10
2018-11-27T01:10:14.740Z,5.10
2018-11-27T01:12:42.859Z,5.10
2018-11-27T01:15:11.822Z,5.00
2018-11-27T01:17:43.270Z,5.10
2018-11-27T01:20:14.604Z,5.10
2018-11-27T01:22:42.722Z,5.00
2018-11-27T01:25:11.182Z,5.00
2018-11-27T01:27:39.293Z,4.90
2018-11-27T01:30:13.538Z,5.00
2018-11-27T01:32:41.692Z,5.00
2018-11-27T01:35:12.688Z,5.00
2018-11-27T01:37:40.815Z,5.00
2018-11-27T01:40:14.032Z,5.00
2018-11-27T01:42:42.160Z,5.10
2018-11-27T01:45:11.530Z,5.00
2018-11-27T01:47:39.678Z,5.00
2018-11-27T01:50:10.317Z,5.00
2018-11-27T01:52:38.459Z,5.00
2018-11-27T01:55:08.922Z,4.90
2018-11-27T01:57:37.052Z,4.90
2018-11-27T02:00:30.475Z,5.00
2018-11-27T02:02:59.790Z,5.10
2018-11-27T02:05:28.390Z,5.00
2018-11-27T02:07:56.559Z,5.00
2018-11-27T02:10:24.709Z,5.00
2018-11-27T02:12:53.688Z,5.00
2018-11-27T02:15:22.994Z,4.90
2018-11-27T02:17:51.126Z,4.90
2018-11-27T02:20:19.273Z,4.90
2018-11-27T02:22:47.401Z,4.80
2018-11-27T02:25:19.598Z,4.80
2018-11-27T02:27:47.755Z,4.80
2018-11-27T02:30:16.769Z,4.80
2018-11-27T02:32:44.880Z,4.80
2018-11-27T02:35:17.723Z,4.70
2018-11-27T02:37:46.387Z,4.70
2018-11-27T02:40:15.472Z,4.70
2018-11-27T02:42:43.603Z,4.70
2018-11-27T02:45:12.687Z,4.60
2018-11-27T02:47:41.112Z,4.60
2018-11-27T02:50:11.253Z,4.50
2018-11-27T02:52:39.377Z,4.50
2018-11-27T02:55:11.801Z,4.50
2018-11-27T02:57:40.015Z,4.50
2018-11-27T03:00:09.978Z,4.60
2018-11-27T03:02:38.093Z,4.50
2018-11-27T03:05:08.587Z,4.50
2018-11-27T03:07:36.690Z,4.50
2018-11-27T03:10:06.594Z,4.50
2018-11-27T03:12:34.752Z,4.40
2018-11-27T03:15:02.890Z,4.30
2018-11-27T03:17:30.989Z,4.30
2018-11-27T03:19:59.093Z,4.30
2018-11-27T03:22:27.219Z,4.30
2018-11-27T03:24:55.346Z,4.40
2018-11-27T03:27:23.478Z,4.40
2018-11-27T03:29:51.625Z,4.30
2018-11-27T03:32:19.796Z,4.20
2018-11-27T03:34:47.921Z,4.20
2018-11-27T03:37:16.058Z,4.20
2018-11-27T03:39:44.185Z,4.20
2018-11-27T03:42:12.362Z,4.20
2018-11-27T03:44:40.496Z,4.20
2018-11-27T03:47:08.625Z,4.10
2018-11-27T03:49:36.757Z,4.10
2018-11-27T03:52:05.354Z,4.10
2018-11-27T03:54:33.471Z,4.10
2018-11-27T03:57:01.615Z,4.10
2018-11-27T03:59:29.742Z,4.10
2018-11-27T04:01:57.868Z,4.10
2018-11-27T04:04:26.005Z,4.10
2018-11-27T04:06:54.125Z,4.10
2018-11-27T04:09:22.248Z,4.10
2018-11-27T04:11:50.388Z,4.10
2018-11-27T04:14:18.518Z,4.10
2018-11-27T04:16:46.646Z,4.10
2018-11-27T04:19:14.770Z,4.10
2018-11-27T04:21:42.905Z,4.10
2018-11-27T04:24:11.021Z,4.10
2018-11-27T04:26:39.159Z,4.00
2018-11-27T04:29:07.293Z,4.00
2018-11-27T04:31:35.418Z,4.10
2018-11-27T04:34:03.558Z,4.10
2018-11-27T04:36:31.660Z,4.00
2018-11-27T04:38:59.772Z,4.00
2018-11-27T04:41:27.901Z,4.00
2018-11-27T04:43:56.023Z,4.00
2018-11-27T04:46:24.140Z,4.00
2018-11-27T04:48:52.254Z,3.90
2018-11-27T04:51:20.367Z,3.90
2018-11-27T04:53:48.460Z,3.90
2018-11-27T04:56:16.569Z,3.80
2018-11-27T04:58:44.682Z,3.80
2018-11-27T05:01:12.830Z,3.80
2018-11-27T05:03:40.954Z,3.80
2018-11-27T05:06:09.102Z,3.70
2018-11-27T05:08:37.246Z,3.70
2018-11-27T05:11:05.357Z,3.60
2018-11-27T05:13:33.450Z,3.60
2018-11-27T05:16:08.029Z,3.60
2018-11-27T05:18:36.141Z,3.50
2018-11-27T05:21:04.248Z,3.50
2018-11-27T05:23:32.354Z,3.60
2018-11-27T05:26:07.139Z,3.50
2018-11-27T05:28:35.232Z,3.50
2018-11-27T05:31:03.372Z,3.40
2018-11-27T05:33:31.483Z,3.40
2018-11-27T05:35:59.603Z,3.30
2018-11-27T05:38:27.719Z,3.30
2018-11-27T05:40:55.817Z,3.30
2018-11-27T05:43:23.915Z,3.30
2018-11-27T05:45:52.029Z,3.20
2018-11-27T05:48:20.171Z,3.20
2018-11-27T05:50:48.323Z,3.20
2018-11-27T05:53:16.423Z,3.20
2018-11-27T05:55:44.540Z,3.10
2018-11-27T05:58:12.660Z,3.10
2018-11-27T06:00:40.773Z,3.10
2018-11-27T06:03:09.858Z,3.00
2018-11-27T06:05:37.980Z,3.00
2018-11-27T06:08:06.461Z,2.90
2018-11-27T06:10:34.617Z,2.90
2018-11-27T06:13:02.759Z,2.90
2018-11-27T06:15:30.848Z,3.00
2018-11-27T06:18:00.337Z,3.00
2018-11-27T06:20:28.428Z,3.00
2018-11-27T06:22:56.557Z,3.10
2018-11-27T06:25:26.690Z,3.20
2018-11-27T06:27:58.032Z,3.20
2018-11-27T06:30:27.137Z,3.20
2018-11-27T06:32:55.266Z,3.20
2018-11-27T06:35:25.630Z,3.20
2018-11-27T06:37:53.749Z,3.20
2018-11-27T06:40:23.249Z,3.30
2018-11-27T06:42:51.338Z,3.30
2018-11-27T06:45:20.226Z,3.30
2018-11-27T06:47:49.283Z,3.40
2018-11-27T06:50:17.957Z,3.40
2018-11-27T06:52:46.064Z,3.40
2018-11-27T06:55:15.199Z,3.40
2018-11-27T06:57:43.353Z,3.40
2018-11-27T07:00:17.193Z,3.40
2018-11-27T07:02:45.341Z,3.40
2018-11-27T07:05:13.874Z,3.50
2018-11-27T07:07:42.518Z,3.50
2018-11-27T07:10:17.781Z,3.50
2018-11-27T07:12:46.484Z,3.50
2018-11-27T07:15:15.963Z,3.60
2018-11-27T07:17:44.125Z,3.60
2018-11-27T07:20:12.756Z,3.60
2018-11-27T07:22:40.897Z,3.60
2018-11-27T07:25:13.548Z,3.60
2018-11-27T07:27:43.132Z,3.60
2018-11-27T07:30:15.426Z,3.60
2018-11-27T07:32:43.562Z,3.60
2018-11-27T07:35:12.733Z,3.60
2018-11-27T07:37:40.885Z,3.60
2018-11-27T07:40:12.483Z,3.70
2018-11-27T07:42:40.768Z,3.70
2018-11-27T07:45:11.696Z,3.70
2018-11-27T07:47:39.831Z,3.70
2018-11-27T07:50:08.443Z,3.70
2018-11-27T07:52:36.552Z,3.80
2018-11-27T07:55:05.047Z,3.80
2018-11-27T07:57:33.179Z,3.80
2018-11-27T08:00:01.296Z,3.80
2018-11-27T08:02:29.401Z,3.70
2018-11-27T08:04:57.513Z,3.70
2018-11-27T08:07:25.625Z,3.70
2018-11-27T08:09:53.721Z,3.70
2018-11-27T08:12:21.824Z,3.70
2018-11-27T08:14:49.926Z,3.80
2018-11-27T08:17:18.028Z,3.80
2018-11-27T08:19:46.135Z,4.60
2018-11-27T08:22:14.265Z,4.50
2018-11-27T08:24:42.360Z,4.30
2018-11-27T08:27:10.472Z,4.20
2018-11-27T08:29:38.585Z,4.20
2018-11-27T08:32:06.696Z,4.10
2018-11-27T08:34:34.829Z,4.10
2018-11-27T08:37:02.949Z,4.10
2018-11-27T08:39:31.089Z,4.00
2018-11-27T08:41:59.898Z,4.00
2018-11-27T08:44:27.320Z,4.00
2018-11-27T08:46:55.470Z,4.00
2018-11-27T08:49:23.603Z,4.10
2018-11-27T08:51:51.732Z,4.10
2018-11-27T08:54:19.867Z,4.10
2018-11-27T08:56:48.005Z,4.20
2018-11-27T08:59:16.133Z,4.60
2018-11-27T09:01:44.252Z,5.50
2018-11-27T09:04:12.408Z,5.20
2018-11-27T09:06:40.534Z,4.90
2018-11-27T09:09:09.579Z,4.70
2018-11-27T09:11:40.632Z,4.60
2018-11-27T09:14:08.775Z,4.50
2018-11-27T09:16:36.938Z,4.40
2018-11-27T09:19:05.378Z,4.30
2018-11-27T09:21:33.500Z,4.30
2018-11-27T09:24:01.626Z,4.30
2018-11-27T09:26:29.761Z,4.30
2018-11-27T09:28:57.966Z,4.40
2018-11-27T09:31:26.084Z,4.30
2018-11-27T09:33:54.205Z,4.40
2018-11-27T09:36:22.310Z,4.40
2018-11-27T09:38:50.423Z,4.40
2018-11-27T09:41:18.520Z,4.50
2018-11-27T09:43:46.632Z,4.60
2018-11-27T09:46:14.736Z,4.60
2018-11-27T09:48:42.848Z,4.60
2018-11-27T09:51:10.940Z,4.60
2018-11-27T09:53:39.063Z,4.70
2018-11-27T09:56:07.156Z,4.60
2018-11-27T09:58:35.452Z,4.60
2018-11-27T10:01:03.709Z,4.60
2018-11-27T10:03:31.798Z,4.60
2018-11-27T10:05:59.899Z,4.60
2018-11-27T10:08:28.004Z,4.50
2018-11-27T10:10:56.110Z,4.60
2018-11-27T10:13:24.360Z,4.70
2018-11-27T10:15:52.337Z,4.70
2018-11-27T10:18:20.459Z,4.80
2018-11-27T10:20:48.547Z,4.80
2018-11-27T10:23:16.660Z,4.90
2018-11-27T10:25:44.773Z,4.90
2018-11-27T10:28:12.891Z,5.00
2018-11-27T10:30:41.001Z,5.00
2018-11-27T10:33:10.313Z,5.00
2018-11-27T10:35:48.247Z,4.90
2018-11-27T10:38:16.402Z,4.90
2018-11-27T10:40:45.079Z,4.90
2018-11-27T10:43:13.173Z,4.90
2018-11-27T10:45:41.299Z,5.90
2018-11-27T10:48:09.435Z,5.70
2018-11-27T10:50:37.568Z,5.50
2018-11-27T10:53:07.698Z,5.50
2018-11-27T10:55:35.816Z,5.20
2018-11-27T10:58:04.303Z,5.20
2018-11-27T11:00:37.718Z,5.20
2018-11-27T11:03:37.641Z,5.20
2018-11-27T11:06:07.082Z,5.20
2018-11-27T11:08:35.502Z,5.10
2018-11-27T11:11:03.614Z,5.20
2018-11-27T11:13:31.781Z,5.20
2018-11-27T11:15:59.902Z,5.20
2018-11-27T11:18:28.012Z,5.30
2018-11-27T11:20:56.207Z,5.30
2018-11-27T11:23:24.291Z,5.20
2018-11-27T11:25:52.417Z,5.30
2018-11-27T11:28:22.471Z,5.30
2018-11-27T11:30:50.586Z,5.30
2018-11-27T11:33:18.806Z,5.40
2018-11-27T11:35:46.918Z,5.50
2018-11-27T11:38:15.009Z,5.60
2018-11-27T11:40:43.164Z,7.50
2018-11-27T11:43:11.240Z,7.30
2018-11-27T11:45:39.402Z,6.80
2018-11-27T11:48:07.506Z,6.50
2018-11-27T11:50:35.829Z,6.60
2018-11-27T11:53:11.912Z,6.40
2018-11-27T11:55:40.021Z,6.20
2018-11-27T11:58:08.469Z,6.00
2018-11-27T12:00:39.850Z,5.90
2018-11-27T12:03:08.334Z,5.80
2018-11-27T12:05:36.868Z,5.90
2018-11-27T12:08:06.474Z,5.70
2018-11-27T12:10:35.326Z,5.70
2018-11-27T12:13:03.419Z,5.70
2018-11-27T12:15:31.536Z,5.50
2018-11-27T12:17:59.646Z,5.50
2018-11-27T12:20:27.767Z,5.50
2018-11-27T12:22:55.871Z,5.70
2018-11-27T12:25:24.501Z,5.60
2018-11-27T12:27:52.099Z,5.70
2018-11-27T12:30:21.824Z,8.00
2018-11-27T12:32:49.992Z,7.60
2018-11-27T12:35:18.605Z,7.30
2018-11-27T12:37:46.868Z,6.80
2018-11-27T12:40:16.184Z,6.40
2018-11-27T12:42:44.317Z,6.00
2018-11-27T12:45:15.569Z,5.80
2018-11-27T12:47:43.924Z,5.70
2018-11-27T12:50:13.342Z,5.70
2018-11-27T12:52:41.477Z,5.70
2018-11-27T12:55:15.152Z,5.60
2018-11-27T12:57:43.283Z,5.50
2018-11-27T13:00:13.097Z,5.30
2018-11-27T13:02:41.250Z,5.30
2018-11-27T13:05:11.910Z,5.30
2018-11-27T13:07:40.051Z,5.40
2018-11-27T13:10:11.635Z,5.50
2018-11-27T13:12:39.807Z,5.60
2018-11-27T13:15:11.463Z,5.60
2018-11-27T13:17:40.661Z,5.50
2018-11-27T13:29:39.691Z,5.60
2018-11-27T13:32:08.211Z,5.40
2018-11-27T13:34:36.392Z,5.40
2018-11-27T13:37:05.068Z,5.40
2018-11-27T13:39:37.235Z,5.40
2018-11-27T13:42:06.538Z,5.50
2018-11-27T13:44:34.659Z,5.40
2018-11-27T13:47:02.826Z,5.40
2018-11-27T13:49:31.006Z,5.40
2018-11-27T13:51:59.116Z,5.40
2018-11-27T13:54:27.248Z,5.40
2018-11-27T13:56:55.394Z,5.40
2018-11-27T13:59:23.574Z,5.40
2018-11-27T14:01:51.717Z,5.50
2018-11-27T14:04:19.837Z,5.50
2018-11-27T14:06:48.059Z,6.40
2018-11-27T14:09:16.175Z,6.20
2018-11-27T14:11:44.284Z,6.10
2018-11-27T14:14:12.405Z,6.10
2018-11-27T14:16:40.551Z,6.00
2018-11-27T14:19:08.662Z,6.00
2018-11-27T14:21:36.756Z,5.90
2018-11-27T14:24:05.151Z,5.80
2018-11-27T14:26:33.272Z,5.90
2018-11-27T14:29:01.365Z,5.80
2018-11-27T14:31:29.486Z,5.60
2018-11-27T14:33:57.639Z,6.60
2018-11-27T14:36:25.830Z,6.50
2018-11-27T14:38:53.945Z,6.40
2018-11-27T14:41:22.059Z,6.20
2018-11-27T14:43:50.165Z,6.00
2018-11-27T14:46:18.292Z,5.90
2018-11-27T14:48:46.400Z,5.70
2018-11-27T14:51:14.522Z,5.50
2018-11-27T14:53:42.621Z,5.40
2018-11-27T14:56:10.720Z,5.40
2018-11-27T14:58:38.845Z,5.50
2018-11-27T15:01:06.982Z,5.50
2018-11-27T15:03:35.085Z,5.50
2018-11-27T15:06:03.190Z,5.50
2018-11-27T15:08:31.304Z,5.50
2018-11-27T15:10:59.410Z,5.50
2018-11-27T15:13:27.523Z,5.50
2018-11-27T15:15:55.622Z,5.50
2018-11-27T15:18:23.733Z,5.50
2018-11-27T15:20:51.914Z,5.50
2018-11-27T15:23:20.117Z,5.40
2018-11-27T15:25:48.209Z,5.40
2018-11-27T15:28:16.344Z,5.40
2018-11-27T15:30:44.502Z,5.40
2018-11-27T15:33:12.643Z,5.40
2018-11-27T15:35:40.794Z,5.40
2018-11-27T15:38:08.920Z,5.40
2018-11-27T15:40:38.289Z,5.40
2018-11-27T15:43:06.453Z,5.40
2018-11-27T15:45:35.087Z,5.40
2018-11-27T15:48:04.862Z,5.40
2018-11-27T15:50:32.981Z,5.50
2018-11-27T15:53:01.136Z,5.50
2018-11-27T15:55:31.316Z,5.50
2018-11-27T15:58:03.599Z,5.40
2018-11-27T16:00:31.717Z,5.40
2018-11-27T16:03:00.962Z,5.50
2018-11-27T16:05:27.959Z,5.40
2018-11-27T16:07:56.093Z,5.30
2018-11-27T16:10:24.212Z,5.20
2018-11-27T16:12:52.394Z,5.10
2018-11-27T16:15:20.917Z,5.10
2018-11-27T16:17:49.830Z,5.00
2018-11-27T16:20:19.636Z,4.90
2018-11-27T16:22:48.739Z,4.90
2018-11-27T16:25:17.842Z,4.90
2018-11-27T16:27:46.350Z,4.80
2018-11-27T16:30:15.608Z,4.70
2018-11-27T16:32:43.742Z,4.70
2018-11-27T16:35:12.765Z,4.60
2018-11-27T16:37:41.449Z,4.60
2018-11-27T16:40:13.147Z,4.50
2018-11-27T16:42:41.458Z,4.50
2018-11-27T16:45:13.537Z,4.50
2018-11-27T16:47:41.942Z,4.30
2018-11-27T16:50:11.463Z,4.10
2018-11-27T16:52:39.573Z,4.00
2018-11-27T16:55:09.326Z,4.00
2018-11-27T16:57:37.416Z,4.00
2018-11-27T17:00:13.971Z,4.00
2018-11-27T17:02:42.094Z,3.90
2018-11-27T17:05:10.207Z,3.80
2018-11-27T17:07:38.310Z,3.80
2018-11-27T17:10:09.734Z,3.90
2018-11-27T17:12:37.845Z,3.90
2018-11-27T17:15:09.764Z,5.80
2018-11-27T17:17:37.869Z,5.70
2018-11-27T17:20:11.079Z,5.50
2018-11-27T17:22:39.270Z,5.10
2018-11-27T17:25:07.445Z,4.70
2018-11-27T17:27:35.565Z,4.20
2018-11-27T17:30:04.594Z,4.00
2018-11-27T17:32:32.774Z,3.90
2018-11-27T17:35:00.969Z,3.80
2018-11-27T17:37:29.100Z,3.80
2018-11-27T17:39:57.273Z,3.80
2018-11-27T17:42:25.484Z,3.70
2018-11-27T17:44:53.626Z,3.70
2018-11-27T17:47:21.858Z,3.70
2018-11-27T17:49:49.980Z,3.80
2018-11-27T17:52:18.098Z,3.80
2018-11-27T17:54:46.224Z,3.80
2018-11-27T17:57:14.360Z,3.90
2018-11-27T17:59:42.472Z,4.00
2018-11-27T18:02:10.644Z,3.90
2018-11-27T18:04:38.748Z,3.90
2018-11-27T18:07:06.888Z,4.00
2018-11-27T18:09:41.838Z,4.00
2018-11-27T18:12:09.982Z,4.00
2018-11-27T18:14:38.123Z,3.90
2018-11-27T18:17:06.287Z,4.00
2018-11-27T18:19:34.422Z,4.00
2018-11-27T18:22:02.561Z,3.90
2018-11-27T18:24:30.767Z,3.90
2018-11-27T18:26:58.904Z,3.90
2018-11-27T18:29:27.034Z,3.70
2018-11-27T18:31:55.166Z,3.80
2018-11-27T18:34:23.307Z,3.80
2018-11-27T18:36:51.426Z,3.70
2018-11-27T18:39:19.562Z,3.70
2018-11-27T18:41:47.648Z,3.70
2018-11-27T18:44:15.780Z,3.60
2018-11-27T18:46:43.887Z,3.60
2018-11-27T18:49:12.021Z,3.60
2018-11-27T18:51:40.141Z,3.40
2018-11-27T18:54:08.251Z,3.40
2018-11-27T18:56:36.385Z,3.50
2018-11-27T18:59:04.549Z,3.50
2018-11-27T19:01:32.640Z,3.50
2018-11-27T19:04:00.759Z,3.50
2018-11-27T19:06:28.861Z,3.40
2018-11-27T19:08:56.999Z,3.40
2018-11-27T19:11:25.123Z,3.40
2018-11-27T19:13:53.234Z,3.40
2018-11-27T19:16:21.350Z,3.40
2018-11-27T19:18:49.492Z,3.30
2018-11-27T19:21:17.598Z,3.20
2018-11-27T19:23:45.749Z,3.20
2018-11-27T19:26:13.943Z,3.20
2018-11-27T19:28:42.075Z,3.20
2018-11-27T19:31:10.239Z,3.10
2018-11-27T19:33:38.397Z,3.20
2018-11-27T19:36:06.549Z,3.20
2018-11-27T19:38:34.786Z,3.10
2018-11-27T19:41:02.955Z,3.10
2018-11-27T19:43:31.209Z,3.00
2018-11-27T19:45:59.417Z,3.00
2018-11-27T19:48:27.565Z,2.90
2018-11-27T19:50:55.757Z,2.90
2018-11-27T19:53:23.898Z,2.90
2018-11-27T19:55:52.034Z,2.90
2018-11-27T19:58:20.181Z,2.80
2018-11-27T20:00:48.295Z,2.80
2018-11-27T20:03:16.470Z,2.80
2018-11-27T20:05:44.634Z,2.80
2018-11-27T20:08:14.478Z,2.70
2018-11-27T20:10:42.590Z,2.70
2018-11-27T20:13:10.751Z,2.70
2018-11-27T20:15:39.094Z,2.70
2018-11-27T20:18:07.252Z,2.50
2018-11-27T20:20:35.408Z,2.50
2018-11-27T20:23:03.532Z,2.50
2018-11-27T20:25:31.716Z,2.50
2018-11-27T20:27:59.862Z,2.50
2018-11-27T20:30:28.722Z,2.50
2018-11-27T20:32:59.034Z,2.50
2018-11-27T20:35:28.803Z,2.50
2018-11-27T20:37:57.754Z,2.60
2018-11-27T20:40:26.167Z,2.50
2018-11-27T20:42:54.276Z,2.50
2018-11-27T20:45:24.314Z,2.50
2018-11-27T20:47:59.393Z,2.50
2018-11-27T20:50:27.490Z,2.40
2018-11-27T20:52:55.617Z,2.50
2018-11-27T20:55:23.771Z,2.50
2018-11-27T20:57:54.150Z,2.50
2018-11-27T21:00:25.329Z,2.40
2018-11-27T21:03:01.278Z,2.40
2018-11-27T21:05:29.385Z,2.40
2018-11-27T21:07:57.501Z,2.40
2018-11-27T21:10:25.676Z,2.40
2018-11-27T21:12:53.768Z,2.40
2018-11-27T21:15:21.892Z,2.30
2018-11-27T21:17:50.034Z,2.30
2018-11-27T21:20:19.498Z,2.30
2018-11-27T21:22:46.426Z,2.20
2018-11-27T21:25:21.787Z,2.20
2018-11-27T21:27:53.255Z,2.20
2018-11-27T21:30:21.368Z,2.20
2018-11-27T21:32:49.588Z,2.20
2018-11-27T21:35:18.012Z,2.20
2018-11-27T21:37:46.115Z,2.20
2018-11-27T21:40:16.284Z,2.20
2018-11-27T21:42:44.517Z,2.10
2018-11-27T21:45:20.792Z,2.10
2018-11-27T21:47:49.640Z,2.10
2018-11-27T21:50:18.980Z,2.10
2018-11-27T21:52:47.088Z,2.00
2018-11-27T21:55:15.529Z,2.00
2018-11-27T21:57:43.909Z,2.10
2018-11-27T22:00:13.949Z,2.00
2018-11-27T22:02:42.049Z,2.00
2018-11-27T22:05:10.721Z,2.00
2018-11-27T22:07:38.836Z,2.00
2018-11-27T22:10:10.049Z,2.00
2018-11-27T22:12:38.177Z,2.10
2018-11-27T22:15:10.883Z,2.00
2018-11-27T22:17:39.001Z,2.00
2018-11-27T22:20:09.293Z,2.00
2018-11-27T22:22:37.520Z,2.00
2018-11-27T22:25:10.314Z,1.90
2018-11-27T22:27:38.560Z,1.90
2018-11-27T22:30:14.127Z,1.90
2018-11-27T22:32:43.543Z,2.00
2018-11-27T22:35:11.806Z,1.90
2018-11-27T22:37:39.918Z,1.90
2018-11-27T22:40:12.278Z,2.00
2018-11-27T22:42:40.373Z,2.00
2018-11-27T22:45:10.270Z,1.90
2018-11-27T22:47:38.390Z,1.90
2018-11-27T22:50:15.869Z,1.90
2018-11-27T22:52:43.965Z,1.90
2018-11-27T22:55:12.370Z,1.90
2018-11-27T22:57:40.705Z,2.00
2018-11-27T23:00:18.063Z,2.00
2018-11-27T23:02:46.161Z,2.00
2018-11-27T23:05:14.298Z,2.00
2018-11-27T23:07:42.811Z,1.90
2018-11-27T23:10:11.857Z,1.80
2018-11-27T23:12:39.983Z,1.80
2018-11-27T23:15:09.850Z,1.80
2018-11-27T23:17:37.961Z,1.90
2018-11-27T23:20:08.543Z,1.90
2018-11-27T23:22:36.706Z,1.90
2018-11-27T23:25:06.156Z,1.90
2018-11-27T23:27:34.286Z,1.90
2018-11-27T23:30:02.413Z,1.90
2018-11-27T23:32:30.587Z,1.80
2018-11-27T23:34:58.839Z,1.90
2018-11-27T23:37:27.004Z,1.80
2018-11-27T23:39:55.200Z,1.80
2018-11-27T23:42:29.886Z,1.80
2018-11-27T23:44:58.026Z,1.80
2018-11-27T23:47:26.218Z,1.90
2018-11-27T23:49:54.350Z,1.90
2018-11-27T23:52:22.460Z,1.90
2018-11-27T23:54:50.606Z,1.90
2018-11-27T23:57:18.725Z,1.90
2018-11-27T23:59:46.840Z,1.90
